Time;durP1;ratioP1;P1;durP2;ratioP2;P2;SDS_P1;SDS_P2;PMS_P1;PMS_P2;Temp;Humidity;BMP_temperature;BMP_pressure;BME280_temperature;BME280_humidity;BME280_pressure;Samples;Min_cycle;Max_cycle;Signal;HPM_P1;HPM_P2
2023/10/21 00:00:52;;;;;;;4.38;2.20;;;;;;;;;;5100505;28;20525;-62
2023/10/21 00:03:19;;;;;;;2.95;2.00;;;;;;;;;;5113079;28;20493;-62
2023/10/21 00:05:45;;;;;;;2.13;1.52;;;;;;;;;;5115785;28;20031;-62
2023/10/21 00:08:12;;;;;;;2.40;1.65;;;;;;;;;;5115798;28;20020;-62
2023/10/21 00:10:39;;;;;;;2.42;1.77;;;;;;;;;;5107352;28;20078;-62
2023/10/21 00:13:05;;;;;;;2.92;1.75;;;;;;;;;;5095321;28;20103;-62
2023/10/21 00:15:33;;;;;;;2.75;1.77;;;;;;;;;;5092584;28;20056;-62
2023/10/21 00:18:00;;;;;;;1.92;1.30;;;;;;;;;;5089692;28;20040;-62
2023/10/21 00:20:27;;;;;;;3.33;1.95;;;;;;;;;;5095183;28;20470;-63
2023/10/21 00:22:53;;;;;;;7.25;2.00;;;;;;;;;;5110118;28;20019;-62
2023/10/21 00:25:20;;;;;;;2.05;1.60;;;;;;;;;;5111880;28;20024;-62
2023/10/21 00:27:47;;;;;;;7.93;2.17;;;;;;;;;;5113537;28;20406;-62
2023/10/21 00:30:13;;;;;;;4.57;2.35;;;;;;;;;;5115485;28;20023;-62
2023/10/21 00:32:40;;;;;;;4.07;1.88;;;;;;;;;;5109732;28;20032;-62
2023/10/21 00:35:07;;;;;;;2.60;1.73;;;;;;;;;;5096008;28;20085;-62
2023/10/21 00:37:33;;;;;;;3.80;2.63;;;;;;;;;;5092735;28;20028;-62
2023/10/21 00:40:00;;;;;;;3.33;2.20;;;;;;;;;;5089168;28;20462;-63
2023/10/21 00:42:27;;;;;;;3.67;1.67;;;;;;;;;;5091482;28;20107;-62
2023/10/21 00:44:53;;;;;;;11.03;2.37;;;;;;;;;;5105701;28;20063;-63
2023/10/21 00:47:20;;;;;;;4.50;2.83;;;;;;;;;;5107081;28;20441;-62
2023/10/21 00:49:47;;;;;;;4.33;2.40;;;;;;;;;;5095506;28;20087;-62
2023/10/21 00:52:14;;;;;;;4.67;2.17;;;;;;;;;;5094273;28;20032;-63
2023/10/21 00:54:40;;;;;;;2.20;1.43;;;;;;;;;;5096373;28;20032;-62
2023/10/21 00:57:08;;;;;;;3.53;1.90;;;;;;;;;;5094567;28;20032;-62
2023/10/21 00:59:35;;;;;;;3.60;2.57;;;;;;;;;;5093330;28;20089;-62
2023/10/21 01:02:02;;;;;;;5.80;2.87;;;;;;;;;;5089268;28;20047;-62
2023/10/21 01:04:28;;;;;;;6.67;2.67;;;;;;;;;;5099083;28;20099;-62
2023/10/21 01:06:56;;;;;;;3.47;2.30;;;;;;;;;;5107232;28;20114;-62
2023/10/21 01:09:23;;;;;;;3.60;2.17;;;;;;;;;;5091974;28;20474;-62
2023/10/21 01:11:49;;;;;;;3.60;2.43;;;;;;;;;;5104069;28;20054;-62
2023/10/21 01:14:17;;;;;;;6.57;2.27;;;;;;;;;;5110823;28;20077;-63
2023/10/21 01:16:44;;;;;;;4.37;2.53;;;;;;;;;;5112987;28;20035;-62
2023/10/21 01:19:13;;;;;;;4.10;2.13;;;;;;;;;;5105237;28;20070;-62
2023/10/21 01:21:40;;;;;;;3.63;2.17;;;;;;;;;;5094855;28;20375;-62
2023/10/21 01:24:07;;;;;;;5.07;1.90;;;;;;;;;;5088660;28;20031;-62
2023/10/21 01:26:33;;;;;;;4.17;1.77;;;;;;;;;;5088428;28;20039;-62
2023/10/21 01:29:00;;;;;;;3.27;2.47;;;;;;;;;;5089372;28;20031;-62
2023/10/21 01:31:27;;;;;;;3.23;2.20;;;;;;;;;;5088438;28;20020;-62
2023/10/21 01:33:53;;;;;;;4.27;1.93;;;;;;;;;;5093767;28;20370;-62
2023/10/21 01:36:20;;;;;;;7.00;3.23;;;;;;;;;;5093588;28;20020;-62
2023/10/21 01:38:47;;;;;;;5.17;2.57;;;;;;;;;;5093537;28;20058;-62
2023/10/21 01:41:13;;;;;;;4.60;2.10;;;;;;;;;;5094534;28;20115;-62
2023/10/21 01:43:40;;;;;;;3.57;1.97;;;;;;;;;;5093665;28;20428;-61
2023/10/21 01:46:06;;;;;;;4.63;2.63;;;;;;;;;;5089322;28;20028;-62
2023/10/21 01:48:33;;;;;;;2.00;1.20;;;;;;;;;;5088534;28;20398;-62
2023/10/21 01:51:04;;;;;;;2.63;1.87;;;;;;;;;;5102340;28;20038;-62
2023/10/21 01:53:33;;;;;;;2.47;1.73;;;;;;;;;;5108419;28;20653;-62
2023/10/21 01:56:00;;;;;;;6.00;2.20;;;;;;;;;;5111446;28;20031;-62
2023/10/21 01:58:27;;;;;;;2.30;1.73;;;;;;;;;;5113550;28;20024;-62
2023/10/21 02:00:54;;;;;;;4.17;2.23;;;;;;;;;;5113035;28;20421;-62
2023/10/21 02:03:21;;;;;;;3.33;2.37;;;;;;;;;;5098559;28;20039;-62
2023/10/21 02:05:47;;;;;;;3.23;2.40;;;;;;;;;;5093204;28;20035;-62
2023/10/21 02:08:14;;;;;;;4.53;2.50;;;;;;;;;;5089817;28;20485;-62
2023/10/21 02:10:41;;;;;;;4.50;3.30;;;;;;;;;;5087851;28;20035;-62
2023/10/21 02:13:07;;;;;;;3.33;2.50;;;;;;;;;;5087758;28;20072;-62
2023/10/21 02:15:38;;;;;;;3.83;2.47;;;;;;;;;;5106982;28;20026;-62
2023/10/21 02:18:05;;;;;;;4.03;2.57;;;;;;;;;;5110242;28;20035;-62
2023/10/21 02:20:32;;;;;;;4.47;2.60;;;;;;;;;;5113142;28;20393;-62
2023/10/21 02:22:59;;;;;;;2.27;1.70;;;;;;;;;;5113311;28;20543;-61
2023/10/21 02:25:25;;;;;;;3.10;2.13;;;;;;;;;;5095398;28;20023;-61
2023/10/21 02:27:52;;;;;;;2.80;2.10;;;;;;;;;;5092786;28;20020;-61
2023/10/21 02:30:19;;;;;;;4.40;2.97;;;;;;;;;;5089983;28;20028;-62
2023/10/21 02:32:46;;;;;;;4.30;2.90;;;;;;;;;;5087073;28;20046;-61
2023/10/21 02:35:13;;;;;;;4.40;2.00;;;;;;;;;;5086838;28;20028;-61
2023/10/21 02:37:40;;;;;;;3.37;2.23;;;;;;;;;;5107475;28;20036;-61
2023/10/21 02:40:08;;;;;;;4.50;2.63;;;;;;;;;;5109063;28;20107;-61
2023/10/21 02:42:35;;;;;;;3.30;2.30;;;;;;;;;;5112870;28;20028;-62
2023/10/21 02:45:02;;;;;;;6.07;3.03;;;;;;;;;;5112833;28;20031;-61
2023/10/21 02:47:29;;;;;;;4.20;2.93;;;;;;;;;;5095590;28;20066;-62
2023/10/21 02:49:56;;;;;;;5.40;3.63;;;;;;;;;;5092139;28;20031;-61
2023/10/21 02:52:23;;;;;;;9.77;2.60;;;;;;;;;;5088228;28;20020;-62
2023/10/21 02:54:49;;;;;;;5.80;3.10;;;;;;;;;;5085495;28;20101;-61
2023/10/21 02:57:16;;;;;;;4.70;3.40;;;;;;;;;;5086562;28;20047;-61
2023/10/21 02:59:43;;;;;;;3.83;2.87;;;;;;;;;;5086187;28;20428;-61
2023/10/21 03:02:10;;;;;;;3.70;2.80;;;;;;;;;;5087562;28;20027;-61
2023/10/21 03:04:37;;;;;;;5.67;4.20;;;;;;;;;;5092200;28;20031;-62
2023/10/21 03:07:04;;;;;;;4.23;2.80;;;;;;;;;;5092103;28;20466;-61
2023/10/21 03:09:30;;;;;;;3.50;2.10;;;;;;;;;;5104212;28;20045;-62
2023/10/21 03:11:57;;;;;;;3.93;2.47;;;;;;;;;;5112070;28;20545;-61
2023/10/21 03:14:24;;;;;;;3.77;2.70;;;;;;;;;;5112103;28;20099;-62
2023/10/21 03:16:50;;;;;;;3.27;2.27;;;;;;;;;;5106909;28;20027;-62
2023/10/21 03:19:17;;;;;;;2.53;1.90;;;;;;;;;;5106993;28;20102;-61
2023/10/21 03:21:45;;;;;;;2.23;1.60;;;;;;;;;;5090552;28;20028;-62
2023/10/21 03:24:11;;;;;;;7.63;3.57;;;;;;;;;;5086484;28;20038;-61
2023/10/21 03:26:38;;;;;;;9.97;3.20;;;;;;;;;;5091543;28;20474;-61
2023/10/21 03:29:05;;;;;;;12.90;3.53;;;;;;;;;;5091678;28;20024;-61
2023/10/21 03:31:31;;;;;;;4.43;2.60;;;;;;;;;;5091989;28;20047;-61
2023/10/21 03:33:58;;;;;;;4.97;3.13;;;;;;;;;;5109843;28;20070;-61
2023/10/21 03:36:26;;;;;;;7.03;2.23;;;;;;;;;;5111790;28;20035;-61
2023/10/21 03:38:53;;;;;;;5.17;3.30;;;;;;;;;;5107159;28;20092;-61
2023/10/21 03:41:20;;;;;;;4.10;3.23;;;;;;;;;;5107074;28;20051;-61
2023/10/21 03:43:46;;;;;;;3.17;2.33;;;;;;;;;;5105883;28;20024;-62
2023/10/21 03:46:16;;;;;;;3.00;2.17;;;;;;;;;;5086348;28;20483;-61
2023/10/21 03:48:42;;;;;;;6.30;3.43;;;;;;;;;;5090317;28;20024;-61
2023/10/21 03:51:11;;;;;;;6.17;3.47;;;;;;;;;;5097579;28;20457;-61
2023/10/21 03:53:38;;;;;;;3.37;2.07;;;;;;;;;;5108496;28;20465;-62
2023/10/21 03:56:05;;;;;;;4.87;2.77;;;;;;;;;;5093840;28;20389;-61
2023/10/21 03:58:32;;;;;;;6.53;3.67;;;;;;;;;;5091619;28;20032;-62
2023/10/21 04:00:59;;;;;;;3.90;2.67;;;;;;;;;;5087874;28;20107;-61
2023/10/21 04:03:29;;;;;;;3.30;2.30;;;;;;;;;;5086346;28;20024;-61
2023/10/21 04:05:57;;;;;;;5.67;3.60;;;;;;;;;;5101392;28;20077;-61
2023/10/21 04:08:24;;;;;;;4.13;2.70;;;;;;;;;;5106770;28;20525;-62
2023/10/21 04:10:52;;;;;;;29.17;3.83;;;;;;;;;;5093568;28;20471;-61
2023/10/21 04:13:19;;;;;;;4.13;2.90;;;;;;;;;;5091696;28;20471;-61
2023/10/21 04:15:46;;;;;;;4.50;1.97;;;;;;;;;;5093195;28;20055;-61
2023/10/21 04:18:13;;;;;;;5.43;3.97;;;;;;;;;;5091924;28;20056;-61
2023/10/21 04:20:40;;;;;;;8.40;2.63;;;;;;;;;;5091257;28;20020;-61
2023/10/21 04:23:07;;;;;;;3.70;2.67;;;;;;;;;;5088276;28;20077;-61
2023/10/21 04:25:33;;;;;;;3.77;2.00;;;;;;;;;;5088851;28;20497;-62
2023/10/21 04:28:01;;;;;;;9.47;2.73;;;;;;;;;;5106729;28;20028;-61
2023/10/21 04:30:28;;;;;;;7.00;3.10;;;;;;;;;;5110176;28;20413;-62
2023/10/21 04:32:55;;;;;;;3.67;2.10;;;;;;;;;;5112602;28;20054;-62
2023/10/21 04:35:22;;;;;;;4.20;3.00;;;;;;;;;;5115191;28;20053;-61
2023/10/21 04:37:49;;;;;;;20.33;2.47;;;;;;;;;;5115194;28;20050;-62
2023/10/21 04:40:15;;;;;;;4.70;2.67;;;;;;;;;;5098584;28;20028;-61
2023/10/21 04:42:43;;;;;;;4.87;2.80;;;;;;;;;;5094369;28;20458;-61
2023/10/21 04:45:10;;;;;;;3.70;2.67;;;;;;;;;;5092468;28;20032;-61
2023/10/21 04:47:37;;;;;;;7.70;3.77;;;;;;;;;;5089471;28;20501;-61
2023/10/21 04:50:04;;;;;;;3.70;2.97;;;;;;;;;;5089409;28;20016;-61
2023/10/21 04:52:31;;;;;;;4.37;3.27;;;;;;;;;;5109973;28;20034;-61
2023/10/21 04:54:57;;;;;;;8.77;3.70;;;;;;;;;;5110847;28;20103;-61
2023/10/21 04:57:24;;;;;;;7.97;3.40;;;;;;;;;;5115038;28;20157;-61
2023/10/21 04:59:51;;;;;;;4.87;3.57;;;;;;;;;;5114879;28;20085;-61
2023/10/21 05:02:17;;;;;;;4.50;2.80;;;;;;;;;;5096005;28;20031;-61
2023/10/21 05:04:44;;;;;;;3.70;2.57;;;;;;;;;;5094189;28;20032;-62
2023/10/21 05:07:11;;;;;;;4.13;2.70;;;;;;;;;;5112373;28;20038;-61
2023/10/21 05:09:39;;;;;;;3.30;2.60;;;;;;;;;;5109431;28;20401;-62
2023/10/21 05:12:06;;;;;;;6.70;3.17;;;;;;;;;;5109279;28;20023;-61
2023/10/21 05:14:33;;;;;;;2.60;1.90;;;;;;;;;;5109385;28;20031;-61
2023/10/21 05:16:59;;;;;;;2.77;2.23;;;;;;;;;;5092459;28;20039;-61
2023/10/21 05:19:26;;;;;;;4.70;3.03;;;;;;;;;;5096890;28;20016;-61
2023/10/21 05:21:52;;;;;;;4.13;2.83;;;;;;;;;;5114627;28;20037;-61
2023/10/21 05:24:19;;;;;;;4.90;3.30;;;;;;;;;;5114470;28;20509;-61
2023/10/21 05:26:46;;;;;;;5.67;3.50;;;;;;;;;;5114613;28;20023;-61
2023/10/21 05:29:12;;;;;;;4.93;3.00;;;;;;;;;;5112806;28;20072;-61
2023/10/21 05:31:39;;;;;;;3.53;2.00;;;;;;;;;;5088644;28;20028;-62
2023/10/21 05:34:06;;;;;;;5.57;2.90;;;;;;;;;;5088490;28;20024;-61
2023/10/21 05:36:33;;;;;;;4.27;2.83;;;;;;;;;;5087502;28;20036;-61
2023/10/21 05:38:59;;;;;;;5.87;3.87;;;;;;;;;;5088180;28;20020;-61
2023/10/21 05:41:26;;;;;;;2.93;2.00;;;;;;;;;;5098160;28;20102;-61
2023/10/21 05:43:53;;;;;;;4.80;3.10;;;;;;;;;;5113901;28;20032;-61
2023/10/21 05:46:19;;;;;;;6.83;2.43;;;;;;;;;;5113896;28;20020;-61
2023/10/21 05:48:46;;;;;;;4.33;3.03;;;;;;;;;;5104631;28;20111;-60
2023/10/21 05:51:12;;;;;;;11.40;4.03;;;;;;;;;;5108856;28;20081;-63
2023/10/21 05:53:39;;;;;;;2.77;1.77;;;;;;;;;;5089681;28;20055;-60
2023/10/21 05:56:06;;;;;;;3.50;2.27;;;;;;;;;;5091075;28;20012;-60
2023/10/21 05:58:33;;;;;;;2.83;2.17;;;;;;;;;;5109179;28;20045;-61
2023/10/21 06:01:06;;;;;;;7.27;3.20;;;;;;;;;;5108595;28;20421;-59
2023/10/21 06:03:33;;;;;;;5.17;3.10;;;;;;;;;;5095023;28;20044;-61
2023/10/21 06:06:00;;;;;;;3.47;2.53;;;;;;;;;;5105988;28;20020;-59
2023/10/21 06:08:27;;;;;;;3.40;2.40;;;;;;;;;;5113633;28;20020;-61
2023/10/21 06:10:54;;;;;;;7.23;2.43;;;;;;;;;;5113564;28;20016;-59
2023/10/21 06:13:21;;;;;;;2.70;2.10;;;;;;;;;;5112406;28;20115;-61
2023/10/21 06:15:51;;;;;;;3.80;2.17;;;;;;;;;;5110278;28;20037;-60
2023/10/21 06:18:18;;;;;;;3.47;2.70;;;;;;;;;;5108052;28;20047;-59
2023/10/21 06:20:51;;;;;;;4.87;2.40;;;;;;;;;;5107544;28;20069;-59
2023/10/21 06:23:18;;;;;;;6.17;2.50;;;;;;;;;;5106787;28;20040;-60
2023/10/21 06:25:45;;;;;;;2.90;1.97;;;;;;;;;;5111186;28;20069;-59
2023/10/21 06:28:29;;;;;;;;;;;;;;;;;;;;;
2023/10/21 06:31:36;;;;;;;3.63;2.60;;;;;;;;;;5191435;22;20049;-63
2023/10/21 06:34:02;;;;;;;3.37;1.47;;;;;;;;;;5068816;28;20099;-65
2023/10/21 06:36:50;;;;;;;9.93;2.47;;;;;;;;;;5349667;22;20056;-62
2023/10/21 06:39:18;;;;;;;4.03;2.67;;;;;;;;;;5063150;28;20059;-61
2023/10/21 06:41:45;;;;;;;5.17;2.50;;;;;;;;;;5066285;28;20052;-62
2023/10/21 06:44:12;;;;;;;4.20;3.07;;;;;;;;;;5052464;28;20502;-62
2023/10/21 06:46:38;;;;;;;4.07;2.50;;;;;;;;;;5069898;28;20020;-61
2023/10/21 06:49:05;;;;;;;4.23;2.20;;;;;;;;;;5065629;28;20100;-61
2023/10/21 06:51:32;;;;;;;2.63;2.03;;;;;;;;;;5066125;28;20025;-60
2023/10/21 06:53:58;;;;;;;4.07;2.80;;;;;;;;;;5065824;28;20032;-61
2023/10/21 06:56:25;;;;;;;2.33;1.90;;;;;;;;;;5065266;28;20095;-60
2023/10/21 06:58:52;;;;;;;4.37;2.83;;;;;;;;;;5068744;28;20020;-60
2023/10/21 07:01:19;;;;;;;4.73;3.10;;;;;;;;;;5071563;28;20046;-61
2023/10/21 07:03:45;;;;;;;5.43;3.10;;;;;;;;;;5071378;28;20478;-61
2023/10/21 07:06:12;;;;;;;3.83;1.87;;;;;;;;;;5071490;28;20379;-61
2023/10/21 07:08:39;;;;;;;2.87;2.13;;;;;;;;;;5071296;28;20124;-60
2023/10/21 07:11:06;;;;;;;4.50;2.60;;;;;;;;;;5068859;28;20443;-61
2023/10/21 07:13:32;;;;;;;5.00;2.90;;;;;;;;;;5065974;28;20035;-61
2023/10/21 07:16:06;;;;;;;5.00;3.13;;;;;;;;;;5066077;28;20020;-60
2023/10/21 07:18:33;;;;;;;13.20;4.07;;;;;;;;;;5065742;28;20064;-61
2023/10/21 07:20:59;;;;;;;2.90;1.90;;;;;;;;;;5067606;28;20025;-60
2023/10/21 07:23:26;;;;;;;4.33;2.33;;;;;;;;;;5071227;28;20020;-60
2023/10/21 07:25:53;;;;;;;8.93;2.50;;;;;;;;;;5071386;28;20024;-61
2023/10/21 07:28:20;;;;;;;2.70;1.83;;;;;;;;;;5071259;28;20021;-60
2023/10/21 07:30:47;;;;;;;4.67;2.90;;;;;;;;;;5071423;28;20027;-60
2023/10/21 07:33:13;;;;;;;3.17;2.00;;;;;;;;;;5069374;28;20025;-61
2023/10/21 07:35:40;;;;;;;3.53;2.47;;;;;;;;;;5065543;28;20029;-60
2023/10/21 07:38:07;;;;;;;2.60;2.00;;;;;;;;;;5065770;28;20052;-61
2023/10/21 07:40:33;;;;;;;2.77;1.83;;;;;;;;;;5065827;28;20021;-60
2023/10/21 07:43:00;;;;;;;5.13;3.13;;;;;;;;;;5066194;28;20028;-61
2023/10/21 07:45:28;;;;;;;3.23;2.20;;;;;;;;;;5070723;28;20029;-61
2023/10/21 07:47:55;;;;;;;3.17;2.40;;;;;;;;;;5071049;28;20056;-62
2023/10/21 07:50:23;;;;;;;2.30;1.90;;;;;;;;;;5070544;28;20024;-61
2023/10/21 07:52:49;;;;;;;2.93;1.97;;;;;;;;;;5070912;28;20044;-61
2023/10/21 07:55:16;;;;;;;6.00;2.97;;;;;;;;;;5054269;28;20025;-61
2023/10/21 07:57:43;;;;;;;4.67;3.40;;;;;;;;;;5045803;28;20037;-60
2023/10/21 08:00:13;;;;;;;3.70;2.67;;;;;;;;;;5047811;28;20464;-60
2023/10/21 08:02:40;;;;;;;5.70;3.63;;;;;;;;;;5049396;28;20029;-61
2023/10/21 08:05:07;;;;;;;5.07;3.30;;;;;;;;;;5062440;28;20067;-62
2023/10/21 08:07:34;;;;;;;3.27;2.03;;;;;;;;;;5074052;28;20028;-60
2023/10/21 08:10:00;;;;;;;5.03;3.23;;;;;;;;;;5074490;28;20020;-60
2023/10/21 08:12:28;;;;;;;4.10;2.63;;;;;;;;;;5074691;28;20540;-60
2023/10/21 08:14:55;;;;;;;4.20;2.80;;;;;;;;;;5062871;28;20060;-61
2023/10/21 08:17:22;;;;;;;4.50;2.70;;;;;;;;;;5054535;28;20033;-60
2023/10/21 08:19:49;;;;;;;4.27;2.60;;;;;;;;;;5053591;28;20020;-61
2023/10/21 08:22:15;;;;;;;5.13;3.13;;;;;;;;;;5069171;28;20013;-60
2023/10/21 08:24:42;;;;;;;9.40;3.37;;;;;;;;;;5069152;28;20035;-61
2023/10/21 08:27:10;;;;;;;4.80;2.80;;;;;;;;;;5068858;28;20169;-61
2023/10/21 08:29:37;;;;;;;4.30;2.93;;;;;;;;;;5070623;28;20035;-61
2023/10/21 08:32:04;;;;;;;5.30;2.80;;;;;;;;;;5054220;28;20482;-61
2023/10/21 08:34:32;;;;;;;6.67;3.40;;;;;;;;;;5054133;28;20021;-61
2023/10/21 08:36:59;;;;;;;5.57;3.60;;;;;;;;;;5053891;28;20120;-61
2023/10/21 08:39:26;;;;;;;4.90;3.10;;;;;;;;;;5054203;28;20349;-61
2023/10/21 08:41:53;;;;;;;3.47;2.63;;;;;;;;;;5069915;28;20111;-61
2023/10/21 08:44:20;;;;;;;5.40;3.70;;;;;;;;;;5068301;28;20078;-61
2023/10/21 08:46:48;;;;;;;4.40;2.87;;;;;;;;;;5069075;28;20494;-60
2023/10/21 08:49:15;;;;;;;3.10;1.83;;;;;;;;;;5068827;28;20025;-61
2023/10/21 08:51:42;;;;;;;5.97;2.63;;;;;;;;;;5052922;28;20124;-61
2023/10/21 08:54:08;;;;;;;2.37;1.93;;;;;;;;;;5054145;28;20028;-61
2023/10/21 08:56:35;;;;;;;4.13;2.80;;;;;;;;;;5054457;28;20059;-60
2023/10/21 08:59:01;;;;;;;4.23;2.77;;;;;;;;;;5054288;28;20020;-60
2023/10/21 09:01:28;;;;;;;5.30;3.27;;;;;;;;;;5071077;28;20035;-59
2023/10/21 09:03:56;;;;;;;4.00;2.90;;;;;;;;;;5070724;28;20020;-59
2023/10/21 09:06:23;;;;;;;2.63;1.90;;;;;;;;;;5068951;28;20044;-59
2023/10/21 09:08:50;;;;;;;2.97;2.13;;;;;;;;;;5068901;28;20035;-60
2023/10/21 09:11:18;;;;;;;4.97;2.63;;;;;;;;;;5053517;28;20021;-59
2023/10/21 09:13:45;;;;;;;3.33;2.43;;;;;;;;;;5051079;28;20021;-59
2023/10/21 09:16:37;;;;;;;4.30;2.60;;;;;;;;;;5054014;28;20376;-59
2023/10/21 09:19:10;;;;;;;2.70;2.03;;;;;;;;;;5050386;28;20081;-59
2023/10/21 09:21:44;;;;;;;4.47;3.23;;;;;;;;;;5071571;28;20028;-59
2023/10/21 09:24:22;;;;;;;3.73;2.60;;;;;;;;;;5074001;28;20047;-59
2023/10/21 09:26:48;;;;;;;4.73;2.70;;;;;;;;;;5069377;28;20028;-59
2023/10/21 09:29:22;;;;;;;3.70;2.57;;;;;;;;;;5068436;28;20078;-59
2023/10/21 09:31:51;;;;;;;16.17;3.50;;;;;;;;;;5048556;28;20029;-59
2023/10/21 09:34:24;;;;;;;5.60;3.43;;;;;;;;;;5048202;28;20024;-59
2023/10/21 09:36:52;;;;;;;4.30;2.57;;;;;;;;;;5052211;28;20040;-59
2023/10/21 09:39:19;;;;;;;4.00;2.73;;;;;;;;;;5053551;28;20545;-59
2023/10/21 09:41:47;;;;;;;3.13;2.27;;;;;;;;;;5070970;28;20017;-59
2023/10/21 09:44:15;;;;;;;5.00;2.40;;;;;;;;;;5073398;28;20475;-59
2023/10/21 09:46:43;;;;;;;3.77;2.80;;;;;;;;;;5073379;28;20463;-59
2023/10/21 09:49:11;;;;;;;4.90;3.47;;;;;;;;;;5069226;28;20065;-60
2023/10/21 09:51:41;;;;;;;4.40;3.07;;;;;;;;;;5050814;28;20070;-60
2023/10/21 09:54:12;;;;;;;4.57;2.73;;;;;;;;;;5048028;28;20029;-59
2023/10/21 09:56:39;;;;;;;8.50;3.53;;;;;;;;;;5047379;28;20040;-59
2023/10/21 09:59:06;;;;;;;5.07;3.47;;;;;;;;;;5052281;28;20074;-60
2023/10/21 10:01:37;;;;;;;6.50;2.60;;;;;;;;;;5053180;28;20036;-60
2023/10/21 10:04:05;;;;;;;3.70;2.60;;;;;;;;;;5052983;28;20159;-60
2023/10/21 10:06:32;;;;;;;6.00;3.53;;;;;;;;;;5053160;28;20111;-59
2023/10/21 10:08:59;;;;;;;5.80;3.47;;;;;;;;;;5063099;28;20475;-59
2023/10/21 10:11:27;;;;;;;9.57;2.90;;;;;;;;;;5069277;28;20028;-59
2023/10/21 10:13:54;;;;;;;5.43;3.20;;;;;;;;;;5067237;28;20036;-60
2023/10/21 10:16:24;;;;;;;5.17;3.27;;;;;;;;;;5067553;28;20534;-60
2023/10/21 10:18:51;;;;;;;8.53;3.70;;;;;;;;;;5066239;28;20024;-59
2023/10/21 10:21:20;;;;;;;4.43;2.97;;;;;;;;;;5070204;28;20031;-59
2023/10/21 10:23:53;;;;;;;5.50;2.50;;;;;;;;;;5072351;28;20028;-60
2023/10/21 10:26:38;;;;;;;24.93;3.40;;;;;;;;;;5072706;28;20046;-60
2023/10/21 10:29:25;;;;;;;4.60;3.20;;;;;;;;;;5052608;28;20040;-59
2023/10/21 10:32:11;;;;;;;8.93;3.43;;;;;;;;;;5052785;28;20040;-59
2023/10/21 10:34:50;;;;;;;4.97;3.30;;;;;;;;;;5047095;28;20029;-60
2023/10/21 10:37:32;;;;;;;4.93;3.20;;;;;;;;;;5053165;28;20036;-59
2023/10/21 10:39:59;;;;;;;3.73;2.70;;;;;;;;;;5067276;28;20032;-60
2023/10/21 10:42:28;;;;;;;2.57;1.83;;;;;;;;;;5067060;28;20044;-60
2023/10/21 10:44:55;;;;;;;7.37;3.60;;;;;;;;;;5072401;28;20493;-60
2023/10/21 10:47:28;;;;;;;8.27;3.13;;;;;;;;;;5072112;28;20073;-59
2023/10/21 10:49:56;;;;;;;7.23;3.27;;;;;;;;;;5067352;28;20029;-60
2023/10/21 10:52:27;;;;;;;3.50;2.50;;;;;;;;;;5062664;28;20033;-59
2023/10/21 10:54:54;;;;;;;4.87;3.23;;;;;;;;;;5061799;28;20028;-59
2023/10/21 10:57:23;;;;;;;3.73;3.00;;;;;;;;;;5066482;28;20049;-59
2023/10/21 10:59:50;;;;;;;3.83;3.07;;;;;;;;;;5066759;28;20098;-59
2023/10/21 11:02:20;;;;;;;7.60;3.43;;;;;;;;;;5051875;28;20025;-59
2023/10/21 11:04:49;;;;;;;3.67;2.67;;;;;;;;;;5046683;28;20103;-60
2023/10/21 11:07:17;;;;;;;3.37;2.27;;;;;;;;;;5052213;28;20088;-60
2023/10/21 11:09:44;;;;;;;3.47;2.60;;;;;;;;;;5052775;28;20349;-60
2023/10/21 11:12:10;;;;;;;4.57;3.10;;;;;;;;;;5072090;28;20021;-60
2023/10/21 11:14:38;;;;;;;4.73;3.50;;;;;;;;;;5071699;28;20044;-60
2023/10/21 11:17:05;;;;;;;7.37;3.57;;;;;;;;;;5071939;28;20052;-60
2023/10/21 11:19:31;;;;;;;5.33;3.43;;;;;;;;;;5066574;28;20417;-59
2023/10/21 11:21:58;;;;;;;3.17;2.43;;;;;;;;;;5047623;28;20033;-60
2023/10/21 11:24:26;;;;;;;5.17;3.70;;;;;;;;;;5046557;28;20160;-59
2023/10/21 11:26:53;;;;;;;4.10;2.80;;;;;;;;;;5046514;28;20068;-60
2023/10/21 11:29:20;;;;;;;4.30;3.10;;;;;;;;;;5051082;28;20079;-60
2023/10/21 11:31:46;;;;;;;4.63;3.00;;;;;;;;;;5051838;28;20100;-60
2023/10/21 11:34:14;;;;;;;5.67;3.50;;;;;;;;;;5069789;28;20071;-60
2023/10/21 11:36:46;;;;;;;6.87;3.13;;;;;;;;;;5076113;28;20627;-60
2023/10/21 11:39:15;;;;;;;4.70;3.53;;;;;;;;;;5075723;28;20467;-60
2023/10/21 11:41:46;;;;;;;5.47;3.30;;;;;;;;;;5070668;28;20493;-60
2023/10/21 11:44:13;;;;;;;4.87;3.17;;;;;;;;;;5068242;28;20044;-59
2023/10/21 11:46:40;;;;;;;5.27;3.60;;;;;;;;;;5050099;28;20100;-59
2023/10/21 11:49:15;;;;;;;4.27;3.67;;;;;;;;;;5050326;28;20017;-60
2023/10/21 11:51:46;;;;;;;5.07;3.40;;;;;;;;;;5055101;28;20028;-59
2023/10/21 12:19:04;;;;;;;4.68;3.50;;;;;;;;;;5054954;28;20052;-58
2023/10/21 12:40:37;;;;;;;8.63;5.60;;;;;;;;;;5043518;28;20029;-58
2023/10/21 12:45:47;;;;;;;9.57;5.03;;;;;;;;;;5071284;28;20552;-59
2023/10/21 12:48:14;;;;;;;9.07;6.37;;;;;;;;;;5071190;28;20020;-59
2023/10/21 12:50:41;;;;;;;12.50;6.00;;;;;;;;;;5069255;28;20099;-58
2023/10/21 12:53:12;;;;;;;8.27;5.83;;;;;;;;;;5069402;28;20764;-58
2023/10/21 12:55:39;;;;;;;8.57;6.23;;;;;;;;;;5068858;28;20319;-59
2023/10/21 12:58:06;;;;;;;8.03;4.70;;;;;;;;;;5051852;28;20044;-58
2023/10/21 13:00:33;;;;;;;5.63;3.73;;;;;;;;;;5054350;28;20612;-58
2023/10/21 13:02:59;;;;;;;9.23;3.67;;;;;;;;;;5054122;28;20250;-58
2023/10/21 13:05:26;;;;;;;4.53;3.33;;;;;;;;;;5057321;28;20262;-58
2023/10/21 13:07:52;;;;;;;6.73;4.47;;;;;;;;;;5074142;28;20025;-58
2023/10/21 13:10:19;;;;;;;9.00;3.70;;;;;;;;;;5071707;28;20032;-58
2023/10/21 13:12:46;;;;;;;9.23;5.80;;;;;;;;;;5068502;28;20033;-58
2023/10/21 13:15:13;;;;;;;22.50;4.43;;;;;;;;;;5068690;28;20257;-58
2023/10/21 13:17:40;;;;;;;6.10;4.83;;;;;;;;;;5048758;28;20535;-58
2023/10/21 13:20:17;;;;;;;8.23;5.10;;;;;;;;;;5050273;28;20427;-59
2023/10/21 13:22:44;;;;;;;9.53;7.03;;;;;;;;;;5053761;28;20352;-59
2023/10/21 13:25:13;;;;;;;9.57;5.77;;;;;;;;;;5053918;28;20036;-58
2023/10/21 13:27:43;;;;;;;5.97;4.87;;;;;;;;;;5053749;28;20052;-58
2023/10/21 13:30:16;;;;;;;8.57;5.57;;;;;;;;;;5053872;28;20029;-59
2023/10/21 13:32:47;;;;;;;7.93;5.43;;;;;;;;;;5070945;28;20032;-58
2023/10/21 13:35:15;;;;;;;8.40;5.97;;;;;;;;;;5067473;28;20055;-59
2023/10/21 13:37:43;;;;;;;9.20;6.67;;;;;;;;;;5048286;28;20128;-58
2023/10/21 13:40:17;;;;;;;6.40;5.13;;;;;;;;;;5047822;28;20031;-58
2023/10/21 13:42:47;;;;;;;7.97;5.60;;;;;;;;;;5050528;28;20028;-59
2023/10/21 13:45:20;;;;;;;7.43;5.50;;;;;;;;;;5053564;28;20342;-61
2023/10/21 13:47:50;;;;;;;8.50;5.37;;;;;;;;;;5053201;28;20079;-62
2023/10/21 13:50:18;;;;;;;7.07;5.10;;;;;;;;;;5054051;28;20055;-62
2023/10/21 13:52:47;;;;;;;6.13;5.00;;;;;;;;;;5073063;28;20450;-62
2023/10/21 13:55:18;;;;;;;4.03;3.00;;;;;;;;;;5070466;28;20034;-61
2023/10/21 13:57:45;;;;;;;7.30;4.03;;;;;;;;;;5066684;28;20028;-61
2023/10/21 14:02:54;;;;;;;6.97;4.63;;;;;;;;;;5058739;28;20052;-61
2023/10/21 14:05:21;;;;;;;6.13;3.10;;;;;;;;;;5070213;28;20024;-62
2023/10/21 14:07:49;;;;;;;4.30;2.97;;;;;;;;;;5073031;28;20344;-62
2023/10/21 14:10:17;;;;;;;4.47;3.33;;;;;;;;;;5073095;28;20171;-61
2023/10/21 14:12:48;;;;;;;8.00;3.37;;;;;;;;;;5063307;28;20039;-62
2023/10/21 14:15:18;;;;;;;4.93;2.93;;;;;;;;;;5053003;28;20025;-62
2023/10/21 14:17:45;;;;;;;6.23;3.87;;;;;;;;;;5049442;28;20475;-61
2023/10/21 14:20:12;;;;;;;7.13;4.13;;;;;;;;;;5047342;28;20032;-62
2023/10/21 14:22:39;;;;;;;3.90;3.03;;;;;;;;;;5054465;28;20059;-62
2023/10/21 14:25:07;;;;;;;4.27;2.80;;;;;;;;;;5067076;28;20028;-65
2023/10/21 14:27:35;;;;;;;4.10;3.30;;;;;;;;;;5069594;28;20077;-61
2023/10/21 14:30:03;;;;;;;6.30;4.00;;;;;;;;;;5072408;28;20074;-61
2023/10/21 14:32:30;;;;;;;13.47;3.60;;;;;;;;;;5072477;28;20029;-62
2023/10/21 14:34:56;;;;;;;4.50;3.27;;;;;;;;;;5061297;28;20021;-62
2023/10/21 14:37:23;;;;;;;5.97;4.73;;;;;;;;;;5052017;28;20038;-62
2023/10/21 14:39:51;;;;;;;6.23;4.33;;;;;;;;;;5049752;28;20487;-62
2023/10/21 14:42:18;;;;;;;7.37;4.47;;;;;;;;;;5045539;28;20037;-62
2023/10/21 14:44:45;;;;;;;7.70;4.93;;;;;;;;;;5046553;28;20029;-59
2023/10/21 14:47:12;;;;;;;8.20;5.03;;;;;;;;;;5057863;28;20039;-60
2023/10/21 14:49:39;;;;;;;6.00;3.93;;;;;;;;;;5068382;28;20032;-61
2023/10/21 14:52:06;;;;;;;9.07;5.17;;;;;;;;;;5071744;28;20482;-60
2023/10/21 14:54:32;;;;;;;13.07;5.47;;;;;;;;;;5072115;28;20025;-60
2023/10/21 14:56:59;;;;;;;8.17;5.27;;;;;;;;;;5072005;28;20368;-60
2023/10/21 14:59:27;;;;;;;7.30;4.47;;;;;;;;;;5060716;28;20048;-60
2023/10/21 15:01:54;;;;;;;10.87;6.13;;;;;;;;;;5050020;28;20444;-60
2023/10/21 15:04:20;;;;;;;9.37;4.80;;;;;;;;;;5046892;28;20025;-60
2023/10/21 15:06:47;;;;;;;6.90;4.60;;;;;;;;;;5046982;28;20049;-60
2023/10/21 15:09:14;;;;;;;8.00;6.03;;;;;;;;;;5046755;28;20609;-59
2023/10/21 15:11:41;;;;;;;8.97;5.10;;;;;;;;;;5061846;28;20051;-61
2023/10/21 15:14:08;;;;;;;12.70;5.63;;;;;;;;;;5071393;28;20024;-60
2023/10/21 15:16:35;;;;;;;7.13;4.33;;;;;;;;;;5071898;28;20024;-60
2023/10/21 15:19:04;;;;;;;10.37;4.33;;;;;;;;;;5072092;28;20483;-60
2023/10/21 15:21:31;;;;;;;6.63;4.33;;;;;;;;;;5071985;28;20048;-60
2023/10/21 15:23:58;;;;;;;11.80;4.27;;;;;;;;;;5052254;28;20033;-60
2023/10/21 15:26:24;;;;;;;9.70;5.23;;;;;;;;;;5046610;28;20099;-60
2023/10/21 15:28:51;;;;;;;7.80;4.47;;;;;;;;;;5046901;28;20018;-61
2023/10/21 15:31:18;;;;;;;5.57;3.67;;;;;;;;;;5065987;28;20028;-60
2023/10/21 15:33:44;;;;;;;8.53;4.33;;;;;;;;;;5066619;28;20375;-60
2023/10/21 15:36:12;;;;;;;7.07;4.33;;;;;;;;;;5071911;28;20033;-60